createdAt,value
2018-03-22T00:01:07.307Z,19.47
2018-03-22T00:03:34.830Z,19.63
2018-03-22T00:06:02.413Z,22.73
2018-03-22T00:08:29.964Z,21.27
2018-03-22T00:10:57.493Z,20.07
2018-03-22T00:13:25.018Z,23.40
2018-03-22T00:15:52.658Z,25.10
2018-03-22T00:18:20.185Z,22.23
2018-03-22T00:20:47.706Z,22.87
2018-03-22T00:23:15.231Z,24.37
2018-03-22T00:25:42.760Z,19.93
2018-03-22T00:28:10.356Z,24.43
2018-03-22T00:30:37.912Z,21.60
2018-03-22T00:33:05.442Z,22.43
2018-03-22T00:35:33.071Z,20.13
2018-03-22T00:38:00.592Z,21.00
2018-03-22T00:40:28.125Z,23.47
2018-03-22T00:42:55.722Z,23.30
2018-03-22T00:45:23.249Z,25.07
2018-03-22T00:47:50.836Z,24.07
2018-03-22T00:50:18.361Z,21.27
2018-03-22T00:52:45.957Z,19.40
2018-03-22T00:55:13.563Z,17.23
2018-03-22T00:57:41.171Z,19.13
2018-03-22T01:00:08.736Z,15.83
2018-03-22T01:02:36.295Z,21.70
2018-03-22T01:05:03.860Z,18.23
2018-03-22T01:07:31.386Z,21.43
2018-03-22T01:09:58.905Z,21.90
2018-03-22T01:12:26.424Z,24.00
2018-03-22T01:14:54.100Z,19.80
2018-03-22T01:17:21.624Z,19.73
2018-03-22T01:19:49.217Z,21.43
2018-03-22T01:22:16.733Z,20.73
2018-03-22T01:24:44.267Z,20.37
2018-03-22T01:27:11.802Z,22.37
2018-03-22T01:29:39.326Z,21.03
2018-03-22T01:32:06.918Z,24.47
2018-03-22T01:34:34.442Z,17.60
2018-03-22T01:37:01.961Z,20.23
2018-03-22T01:39:29.491Z,20.00
2018-03-22T01:41:57.009Z,18.53
2018-03-22T01:44:24.618Z,22.47
2018-03-22T01:46:52.160Z,21.73
2018-03-22T01:49:19.682Z,21.20
2018-03-22T01:51:47.298Z,22.83
2018-03-22T01:54:14.822Z,21.50
2018-03-22T01:56:42.381Z,20.23
2018-03-22T01:59:09.964Z,20.30
2018-03-22T02:01:37.501Z,23.57
2018-03-22T02:04:05.029Z,20.50
2018-03-22T02:06:32.562Z,21.90
2018-03-22T02:09:00.200Z,23.87
2018-03-22T02:11:27.776Z,22.77
2018-03-22T02:13:55.335Z,20.30
2018-03-22T02:16:22.864Z,21.40
2018-03-22T02:18:50.456Z,22.83
2018-03-22T02:21:17.981Z,20.13
2018-03-22T02:23:45.502Z,21.50
2018-03-22T02:26:13.027Z,23.93
2018-03-22T02:28:40.556Z,19.90
2018-03-22T02:31:08.095Z,21.20
2018-03-22T02:33:35.714Z,23.80
2018-03-22T02:36:03.241Z,25.53
2018-03-22T02:38:30.834Z,19.87
2018-03-22T02:40:58.394Z,21.90
2018-03-22T02:43:25.922Z,23.70
2018-03-22T02:45:53.481Z,19.43
2018-03-22T02:48:21.023Z,22.23
2018-03-22T02:50:48.570Z,25.17
2018-03-22T02:53:16.191Z,21.90
2018-03-22T02:55:43.767Z,23.97
2018-03-22T02:58:11.423Z,23.07
2018-03-22T03:00:38.952Z,20.27
2018-03-22T03:03:06.484Z,23.00
2018-03-22T03:05:34.032Z,23.70
2018-03-22T03:08:01.657Z,27.83
2018-03-22T03:10:29.505Z,29.93
2018-03-22T03:12:57.038Z,25.23
2018-03-22T03:15:24.579Z,22.43
2018-03-22T03:17:52.103Z,22.73
2018-03-22T03:20:19.635Z,22.17
2018-03-22T03:22:47.171Z,24.67
2018-03-22T03:25:14.755Z,20.73
2018-03-22T03:27:42.293Z,23.33
2018-03-22T03:30:09.904Z,22.10
2018-03-22T03:32:37.433Z,21.63
2018-03-22T03:35:04.962Z,23.33
2018-03-22T03:37:32.481Z,23.77
2018-03-22T03:40:00.014Z,22.90
2018-03-22T03:42:27.600Z,21.77
2018-03-22T03:44:55.130Z,25.40
2018-03-22T03:47:22.659Z,23.00
2018-03-22T03:49:50.186Z,24.83
2018-03-22T03:52:17.711Z,23.90
2018-03-22T03:54:45.234Z,25.37
2018-03-22T03:57:12.752Z,24.90
2018-03-22T03:59:40.284Z,25.23
2018-03-22T04:02:07.848Z,23.90
2018-03-22T04:04:35.388Z,27.90
2018-03-22T04:07:02.924Z,22.40
2018-03-22T04:09:30.453Z,24.63
2018-03-22T04:11:57.980Z,24.40
2018-03-22T04:14:25.574Z,23.43
2018-03-22T04:16:53.098Z,27.53
2018-03-22T04:19:20.693Z,25.23
2018-03-22T04:21:48.218Z,26.23
2018-03-22T04:24:15.814Z,25.37
2018-03-22T04:26:43.329Z,25.07
2018-03-22T04:29:10.898Z,24.73
2018-03-22T04:31:38.419Z,23.30
2018-03-22T04:34:05.951Z,22.53
2018-03-22T04:36:33.482Z,27.03
2018-03-22T04:39:01.004Z,28.90
2018-03-22T04:41:28.531Z,26.30
2018-03-22T04:43:56.057Z,28.83
2018-03-22T04:46:23.582Z,27.13
2018-03-22T04:48:51.113Z,25.70
2018-03-22T04:51:18.638Z,25.47
2018-03-22T04:53:46.165Z,30.73
2018-03-22T04:56:13.686Z,23.30
2018-03-22T04:58:41.210Z,27.43
2018-03-22T05:01:08.829Z,25.73
2018-03-22T05:03:36.432Z,25.73
2018-03-22T05:06:04.058Z,27.43
2018-03-22T05:08:31.685Z,26.67
2018-03-22T05:10:59.210Z,28.60
2018-03-22T05:13:26.736Z,28.83
2018-03-22T05:15:54.356Z,25.47
2018-03-22T05:18:21.876Z,29.30
2018-03-22T05:20:49.424Z,29.40
2018-03-22T05:23:16.948Z,28.07
2018-03-22T05:25:45.362Z,29.87
2018-03-22T05:28:12.888Z,35.47
2018-03-22T05:30:40.411Z,30.47
2018-03-22T05:33:07.933Z,33.63
2018-03-22T05:35:35.465Z,30.40
2018-03-22T05:38:02.990Z,30.63
2018-03-22T05:40:30.522Z,34.07
2018-03-22T05:42:58.040Z,30.30
2018-03-22T05:45:25.571Z,29.30
2018-03-22T05:47:53.117Z,30.50
2018-03-22T05:50:20.645Z,27.60
2018-03-22T05:52:48.283Z,29.73
2018-03-22T05:55:15.843Z,30.20
2018-03-22T05:57:43.403Z,29.40
2018-03-22T06:00:10.981Z,32.13
2018-03-22T06:02:38.626Z,32.50
2018-03-22T06:05:06.188Z,34.83
2018-03-22T06:07:33.726Z,32.60
2018-03-22T06:10:01.259Z,31.63
2018-03-22T06:12:28.901Z,31.23
2018-03-22T06:14:56.421Z,31.30
2018-03-22T06:17:23.976Z,33.83
2018-03-22T06:19:51.499Z,34.63
2018-03-22T06:22:19.034Z,31.37
2018-03-22T06:24:46.549Z,30.30
2018-03-22T06:27:14.078Z,29.53
2018-03-22T06:29:41.610Z,32.87
2018-03-22T06:32:09.141Z,30.00
2018-03-22T06:34:36.685Z,32.37
2018-03-22T06:37:04.262Z,33.87
2018-03-22T06:39:31.795Z,36.40
2018-03-22T06:41:59.319Z,33.83
2018-03-22T06:44:26.854Z,38.30
2018-03-22T06:46:54.381Z,36.67
2018-03-22T06:49:21.959Z,36.67
2018-03-22T06:51:49.488Z,39.20
2018-03-22T06:54:17.092Z,38.07
2018-03-22T06:56:44.624Z,37.53
2018-03-22T06:59:12.154Z,33.03
2018-03-22T07:01:39.773Z,41.10
2018-03-22T07:04:07.421Z,31.03
2018-03-22T07:06:34.949Z,34.60
2018-03-22T07:09:02.549Z,30.47
2018-03-22T07:11:30.070Z,30.50
2018-03-22T07:13:57.596Z,27.97
2018-03-22T07:16:25.168Z,34.20
2018-03-22T07:18:52.715Z,33.00
2018-03-22T07:21:20.246Z,31.53
2018-03-22T07:23:47.769Z,32.97
2018-03-22T07:26:15.303Z,33.70
2018-03-22T07:28:42.840Z,32.00
2018-03-22T07:31:10.405Z,29.90
2018-03-22T07:33:37.914Z,29.60
2018-03-22T07:36:05.434Z,32.20
2018-03-22T07:38:32.960Z,30.87
2018-03-22T07:41:00.481Z,31.30
2018-03-22T07:43:33.507Z,31.30
2018-03-22T07:46:01.039Z,31.63
2018-03-22T07:48:28.553Z,35.80
2018-03-22T07:50:56.086Z,33.03
2018-03-22T07:53:23.643Z,33.83
2018-03-22T07:55:51.177Z,32.93
2018-03-22T07:58:18.690Z,35.87
2018-03-22T08:00:46.221Z,31.43
2018-03-22T08:03:15.741Z,30.13
2018-03-22T08:05:43.268Z,32.97
2018-03-22T08:08:10.789Z,33.73
2018-03-22T08:10:38.343Z,34.80
2018-03-22T08:13:05.868Z,27.90
2018-03-22T08:15:33.425Z,25.90
2018-03-22T08:18:00.953Z,27.27
2018-03-22T08:20:28.541Z,27.27
2018-03-22T08:22:56.071Z,25.30
2018-03-22T08:25:23.600Z,26.57
2018-03-22T08:27:51.138Z,26.47
2018-03-22T08:30:18.666Z,27.17
2018-03-22T08:32:46.193Z,24.90
2018-03-22T08:35:13.800Z,26.73
2018-03-22T08:37:41.325Z,25.50
2018-03-22T08:40:08.880Z,30.93
2018-03-22T08:42:36.455Z,26.50
2018-03-22T08:45:03.974Z,28.93
2018-03-22T08:47:31.601Z,28.70
2018-03-22T08:49:59.133Z,32.23
2018-03-22T08:52:26.752Z,34.60
2018-03-22T08:54:54.296Z,30.27
2018-03-22T08:57:21.809Z,35.30
2018-03-22T08:59:49.333Z,31.60
2018-03-22T09:02:16.956Z,33.70
2018-03-22T09:04:44.491Z,31.07
2018-03-22T09:07:12.078Z,32.10
2018-03-22T09:09:39.646Z,31.70
2018-03-22T09:12:07.167Z,32.13
2018-03-22T09:14:34.756Z,33.23
2018-03-22T09:17:02.390Z,32.70
2018-03-22T09:19:29.918Z,38.20
2018-03-22T09:21:57.446Z,33.43
2018-03-22T09:24:25.105Z,34.77
2018-03-22T09:26:58.300Z,34.70
2018-03-22T09:29:25.823Z,35.63
2018-03-22T09:31:53.382Z,35.07
2018-03-22T09:34:20.906Z,37.60
2018-03-22T09:36:48.434Z,37.40
2018-03-22T09:39:15.961Z,33.47
2018-03-22T09:41:43.574Z,33.70
2018-03-22T09:44:11.119Z,35.73
2018-03-22T09:46:38.638Z,41.40
2018-03-22T09:49:06.161Z,38.33
2018-03-22T09:51:33.798Z,37.30
2018-03-22T09:54:01.321Z,40.87
2018-03-22T09:56:28.879Z,39.03
2018-03-22T09:58:56.410Z,40.70
2018-03-22T10:01:23.939Z,41.80
2018-03-22T10:03:51.600Z,50.03
2018-03-22T10:06:19.119Z,47.23
2018-03-22T10:08:46.716Z,48.23
2018-03-22T10:11:14.261Z,45.47
2018-03-22T10:13:41.789Z,47.43
2018-03-22T10:16:09.317Z,47.00
2018-03-22T10:18:36.854Z,48.57
2018-03-22T10:21:04.419Z,52.53
2018-03-22T10:23:31.941Z,51.83
2018-03-22T10:25:59.491Z,49.20
2018-03-22T10:28:27.018Z,49.67
2018-03-22T10:30:54.552Z,53.67
2018-03-22T10:33:22.109Z,51.47
2018-03-22T10:35:49.641Z,58.53
2018-03-22T10:38:17.182Z,50.80
2018-03-22T10:40:44.719Z,49.77
2018-03-22T10:43:12.249Z,49.20
2018-03-22T10:45:39.810Z,51.53
2018-03-22T10:48:07.373Z,54.33
2018-03-22T10:50:34.895Z,51.87
2018-03-22T10:53:02.592Z,56.43
2018-03-22T10:55:30.249Z,54.13
2018-03-22T10:57:57.808Z,53.73
2018-03-22T11:00:30.994Z,59.20
2018-03-22T11:06:02.194Z,52.37
2018-03-22T11:08:29.753Z,53.70
2018-03-22T11:10:57.288Z,56.63
2018-03-22T11:13:24.820Z,55.20
2018-03-22T11:15:52.942Z,58.00
2018-03-22T11:18:20.483Z,55.63
2018-03-22T11:20:48.006Z,54.33
2018-03-22T11:23:15.542Z,55.20
2018-03-22T11:25:43.211Z,60.10
2018-03-22T11:28:10.751Z,53.83
2018-03-22T11:30:38.467Z,58.57
2018-03-22T11:33:06.047Z,57.37
2018-03-22T11:35:33.610Z,54.23
2018-03-22T11:38:01.126Z,55.30
2018-03-22T11:40:28.722Z,60.50
2018-03-22T11:42:56.291Z,53.53
2018-03-22T11:45:23.814Z,57.60
2018-03-22T11:47:51.362Z,56.77
2018-03-22T11:50:18.976Z,53.73
2018-03-22T11:52:46.542Z,56.27
2018-03-22T11:55:14.073Z,55.20
2018-03-22T11:57:41.648Z,58.13
2018-03-22T12:00:09.223Z,56.13
2018-03-22T12:02:36.741Z,57.80
2018-03-22T12:05:04.330Z,59.07
2018-03-22T12:07:31.869Z,55.10
2018-03-22T12:09:59.459Z,51.03
2018-03-22T12:12:26.996Z,55.30
2018-03-22T12:14:54.670Z,53.43
2018-03-22T12:17:22.204Z,53.50
2018-03-22T12:19:49.732Z,52.10
2018-03-22T12:22:17.255Z,52.87
2018-03-22T12:24:44.779Z,49.93
2018-03-22T12:27:12.369Z,53.30
2018-03-22T12:29:39.898Z,50.90
2018-03-22T12:32:07.437Z,50.23
2018-03-22T12:34:34.976Z,57.77
2018-03-22T12:37:02.508Z,53.33
2018-03-22T12:39:30.036Z,49.13
2018-03-22T12:41:57.657Z,50.87
2018-03-22T12:44:25.203Z,50.83
2018-03-22T12:46:52.758Z,46.93
2018-03-22T12:49:20.422Z,51.97
2018-03-22T12:51:48.078Z,48.23
2018-03-22T12:54:15.606Z,46.70
2018-03-22T12:56:43.601Z,49.47
2018-03-22T12:59:11.128Z,45.27
2018-03-22T13:01:38.657Z,43.10
2018-03-22T13:04:06.185Z,45.57
2018-03-22T13:06:33.714Z,51.27
2018-03-22T13:09:01.235Z,42.97
2018-03-22T13:11:28.864Z,43.73
2018-03-22T13:13:56.393Z,43.43
2018-03-22T13:16:23.985Z,42.97
2018-03-22T13:18:51.514Z,48.73
2018-03-22T13:21:19.040Z,42.30
2018-03-22T13:23:46.662Z,41.13
2018-03-22T13:26:14.194Z,41.03
2018-03-22T13:28:41.715Z,41.13
2018-03-22T13:31:09.246Z,43.50
2018-03-22T13:33:36.917Z,40.97
2018-03-22T13:36:04.563Z,39.53
2018-03-22T13:38:32.093Z,40.87
2018-03-22T13:40:59.620Z,38.63
2018-03-22T13:43:27.142Z,39.47
2018-03-22T13:45:54.675Z,39.40
2018-03-22T13:48:22.230Z,35.73
2018-03-22T13:50:49.759Z,35.93
2018-03-22T13:53:17.279Z,35.07
2018-03-22T13:55:44.805Z,33.30
2018-03-22T13:58:12.330Z,36.07
2018-03-22T14:00:39.885Z,32.00
2018-03-22T14:03:07.515Z,32.40
2018-03-22T14:05:35.079Z,33.63
2018-03-22T14:08:02.619Z,33.23
2018-03-22T14:10:30.197Z,30.17
2018-03-22T14:12:57.747Z,29.53
2018-03-22T14:15:25.287Z,30.20
2018-03-22T14:17:52.812Z,32.47
2018-03-22T14:20:20.336Z,29.53
2018-03-22T14:22:47.862Z,28.27
2018-03-22T14:25:15.380Z,30.50
2018-03-22T14:27:42.914Z,31.07
2018-03-22T14:30:10.437Z,31.13
2018-03-22T14:32:37.960Z,29.57
2018-03-22T14:35:05.527Z,30.53
2018-03-22T14:37:33.055Z,28.97
2018-03-22T14:40:01.637Z,30.07
2018-03-22T14:42:29.162Z,26.40
2018-03-22T14:44:56.677Z,29.00
2018-03-22T14:47:24.196Z,29.63
2018-03-22T14:49:51.738Z,32.43
2018-03-22T14:52:19.253Z,30.47
2018-03-22T14:54:46.789Z,28.53
2018-03-22T14:57:14.324Z,28.70
2018-03-22T14:59:41.843Z,26.33
2018-03-22T15:02:09.389Z,26.37
2018-03-22T15:04:36.929Z,31.27
2018-03-22T15:07:04.456Z,28.93
2018-03-22T15:09:31.976Z,31.43
2018-03-22T15:11:59.502Z,29.20
2018-03-22T15:14:27.046Z,30.03
2018-03-22T15:16:54.588Z,29.93
2018-03-22T15:19:22.121Z,30.23
2018-03-22T15:21:49.644Z,30.40
2018-03-22T15:24:17.172Z,30.43
2018-03-22T15:26:44.692Z,28.70
2018-03-22T15:29:12.217Z,28.43
2018-03-22T15:31:39.777Z,26.70
2018-03-22T15:34:07.306Z,30.13
2018-03-22T15:36:34.874Z,28.97
2018-03-22T15:39:02.390Z,29.77
2018-03-22T15:41:29.919Z,26.80
2018-03-22T15:43:57.450Z,26.73
2018-03-22T15:46:24.987Z,28.07
2018-03-22T15:48:52.520Z,27.73
2018-03-22T15:51:20.155Z,28.70
2018-03-22T15:53:47.697Z,28.27
2018-03-22T15:56:15.239Z,27.17
2018-03-22T15:58:42.842Z,27.33
2018-03-22T16:01:10.372Z,26.40
2018-03-22T16:03:37.885Z,28.93
2018-03-22T16:06:05.954Z,27.50
2018-03-22T16:08:33.493Z,28.10
2018-03-22T16:11:01.034Z,26.23
2018-03-22T16:13:28.605Z,27.87
2018-03-22T16:15:56.124Z,27.00
2018-03-22T16:18:23.654Z,26.53
2018-03-22T16:20:51.183Z,26.27
2018-03-22T16:23:18.706Z,25.73
2018-03-22T16:25:46.280Z,28.43
2018-03-22T16:28:13.793Z,27.90
2018-03-22T16:30:41.332Z,24.77
2018-03-22T16:33:08.871Z,25.03
2018-03-22T16:35:36.385Z,26.37
2018-03-22T16:38:03.909Z,26.93
2018-03-22T16:40:31.432Z,26.43
2018-03-22T16:42:59.024Z,26.17
2018-03-22T16:45:26.582Z,27.30
2018-03-22T16:47:54.105Z,29.33
2018-03-22T16:50:21.638Z,27.70
2018-03-22T18:14:46.362Z,37.03
2018-03-22T18:17:13.919Z,41.60
2018-03-22T18:19:41.451Z,40.97
2018-03-22T18:22:09.044Z,41.60
2018-03-22T18:24:36.574Z,42.17
2018-03-22T18:27:04.483Z,40.53
2018-03-22T18:29:32.041Z,41.27
2018-03-22T18:31:59.568Z,42.07
2018-03-22T18:34:27.147Z,39.73
2018-03-22T18:36:54.703Z,41.70
2018-03-22T18:39:22.222Z,39.77
2018-03-22T18:41:49.756Z,40.00
2018-03-22T18:44:17.275Z,38.67
2018-03-22T18:46:44.814Z,39.23
2018-03-22T18:49:12.336Z,38.80
2018-03-22T18:51:39.871Z,35.97
2018-03-22T18:54:07.421Z,36.50
2018-03-22T18:56:34.978Z,34.50
2018-03-22T18:59:02.497Z,39.93
2018-03-22T19:01:30.031Z,39.13
2018-03-22T19:03:57.563Z,35.27
2018-03-22T19:06:25.122Z,35.70
2018-03-22T19:08:52.646Z,35.47
2018-03-22T19:11:20.174Z,38.50
2018-03-22T19:13:47.747Z,39.83
2018-03-22T19:16:15.360Z,38.50
2018-03-22T19:18:42.889Z,35.37
2018-03-22T19:21:10.413Z,38.13
2018-03-22T19:23:38.035Z,37.63
2018-03-22T19:26:05.569Z,42.83
2018-03-22T19:28:33.093Z,39.33
2018-03-22T19:31:00.721Z,39.23
2018-03-22T19:33:28.245Z,39.73
2018-03-22T19:35:55.835Z,38.37
2018-03-22T19:38:23.400Z,40.20
2018-03-22T19:40:50.925Z,41.90
2018-03-22T19:43:18.454Z,41.90
2018-03-22T19:45:46.017Z,38.93
2018-03-22T19:48:13.539Z,43.37
2018-03-22T19:50:41.067Z,42.70
2018-03-22T19:53:08.598Z,43.53
2018-03-22T19:55:36.118Z,42.07
2018-03-22T19:58:03.661Z,41.77
2018-03-22T20:00:31.185Z,39.97
2018-03-22T20:02:58.726Z,44.83
2018-03-22T20:05:26.312Z,45.40
2018-03-22T20:07:53.937Z,47.40
2018-03-22T20:10:21.461Z,45.43
2018-03-22T20:12:48.993Z,45.03
2018-03-22T20:15:16.557Z,42.87
2018-03-22T20:17:44.156Z,44.30
2018-03-22T20:20:11.683Z,42.83
2018-03-22T20:22:39.277Z,44.60
2018-03-22T20:25:06.802Z,49.13
2018-03-22T20:27:34.331Z,53.30
2018-03-22T20:30:01.959Z,44.47
2018-03-22T20:32:29.485Z,48.57
2018-03-22T20:34:57.015Z,47.70
2018-03-22T20:37:24.563Z,51.37
2018-03-22T20:39:52.970Z,48.53
2018-03-22T20:42:21.334Z,48.83
2018-03-22T20:44:48.951Z,54.13
2018-03-22T20:47:16.619Z,48.33
2018-03-22T20:49:44.146Z,51.73
2018-03-22T20:52:11.672Z,49.03
2018-03-22T20:54:39.298Z,49.30
2018-03-22T20:57:06.860Z,46.27
2018-03-22T20:59:34.391Z,50.93
2018-03-22T21:02:01.978Z,48.57
2018-03-22T21:04:29.538Z,50.03
2018-03-22T21:06:57.082Z,46.93
2018-03-22T21:09:24.613Z,41.17
2018-03-22T21:11:52.141Z,41.67
2018-03-22T21:14:19.670Z,45.03
2018-03-22T21:16:47.201Z,41.10
2018-03-22T21:19:14.734Z,38.77
2018-03-22T21:21:42.267Z,41.70
2018-03-22T21:24:09.925Z,40.27
2018-03-22T21:26:37.445Z,40.40
2018-03-22T21:29:05.002Z,40.67
2018-03-22T21:31:32.529Z,41.60
2018-03-22T21:34:00.057Z,43.43
2018-03-22T21:36:27.594Z,41.57
2018-03-22T21:38:55.160Z,40.23
2018-03-22T21:41:22.681Z,38.53
2018-03-22T21:44:02.103Z,38.03
2018-03-22T21:46:29.642Z,40.67
2018-03-22T21:48:57.285Z,37.37
2018-03-22T21:51:24.910Z,37.57
2018-03-22T21:53:52.500Z,38.30
2018-03-22T21:56:20.032Z,34.93
2018-03-22T21:58:47.652Z,35.60
2018-03-22T22:01:15.291Z,38.27
2018-03-22T22:03:42.889Z,37.93
2018-03-22T22:06:10.416Z,38.10
2018-03-22T22:08:37.949Z,36.93
2018-03-22T22:11:05.491Z,39.57
2018-03-22T22:13:33.042Z,39.43
2018-03-22T22:16:00.582Z,36.47
2018-03-22T22:18:28.110Z,37.70
2018-03-22T22:20:55.648Z,38.47
2018-03-22T22:23:23.239Z,38.40
2018-03-22T22:25:51.968Z,35.93
2018-03-22T22:28:19.506Z,35.70
2018-03-22T22:30:47.050Z,39.23
2018-03-22T22:33:14.575Z,37.27
2018-03-22T22:35:42.168Z,35.13
2018-03-22T22:38:09.716Z,33.83
2018-03-22T22:40:37.258Z,36.70
2018-03-22T22:43:04.810Z,34.00
2018-03-22T22:45:33.162Z,35.47
2018-03-22T22:48:00.724Z,33.90
2018-03-22T22:50:28.281Z,34.13
2018-03-22T22:52:55.815Z,36.00
2018-03-22T22:55:23.429Z,34.97
2018-03-22T22:57:50.963Z,34.63
2018-03-22T23:00:18.519Z,33.40
2018-03-22T23:02:46.055Z,33.97
2018-03-22T23:05:13.581Z,34.20
2018-03-22T23:07:41.162Z,32.03
2018-03-22T23:10:08.689Z,33.23
2018-03-22T23:12:36.216Z,33.93
2018-03-22T23:15:03.762Z,30.60
2018-03-22T23:17:31.324Z,31.20
2018-03-22T23:19:59.234Z,31.30
2018-03-22T23:22:26.763Z,32.10
2018-03-22T23:24:54.284Z,33.70
2018-03-22T23:27:21.811Z,33.27
2018-03-22T23:29:49.405Z,32.17
2018-03-22T23:32:16.950Z,34.30
2018-03-22T23:34:44.500Z,31.77
2018-03-22T23:37:12.025Z,28.93
2018-03-22T23:39:39.582Z,28.67
2018-03-22T23:42:07.102Z,31.13
2018-03-22T23:44:34.629Z,28.70
2018-03-22T23:47:02.179Z,30.43
2018-03-22T23:49:29.703Z,30.90
2018-03-22T23:51:57.240Z,28.10
2018-03-22T23:54:24.766Z,29.27
2018-03-22T23:56:52.366Z,29.77
2018-03-22T23:59:19.920Z,28.97
